sensor_id;sensor_type;location;lat;lon;timestamp;pressure;altitude;pressure_sealevel;temperature;humidity
77079;BME280;66004;55.096;38.760;2023-06-19T00:02:01;100242.09;;;15.47;46.21
77079;BME280;66004;55.096;38.760;2023-06-19T00:04:27;100229.78;;;15.39;46.14
77079;BME280;66004;55.096;38.760;2023-06-19T00:06:53;100234.59;;;15.38;46.11
77079;BME280;66004;55.096;38.760;2023-06-19T00:09:19;100235.25;;;15.32;46.20
77079;BME280;66004;55.096;38.760;2023-06-19T00:11:44;100248.22;;;15.33;46.27
77079;BME280;66004;55.096;38.760;2023-06-19T00:14:10;100235.63;;;15.30;46.77
77079;BME280;66004;55.096;38.760;2023-06-19T00:16:36;100240.94;;;15.32;46.40
77079;BME280;66004;55.096;38.760;2023-06-19T00:19:01;100236.91;;;15.33;46.77
77079;BME280;66004;55.096;38.760;2023-06-19T00:21:29;100257.56;;;15.33;46.79
77079;BME280;66004;55.096;38.760;2023-06-19T00:23:55;100248.22;;;15.33;46.15
77079;BME280;66004;55.096;38.760;2023-06-19T00:26:20;100247.78;;;15.31;46.69
77079;BME280;66004;55.096;38.760;2023-06-19T00:28:48;100247.06;;;15.34;46.80
77079;BME280;66004;55.096;38.760;2023-06-19T00:31:14;100233.59;;;15.31;46.49
77079;BME280;66004;55.096;38.760;2023-06-19T00:33:41;100230.13;;;15.22;46.63
77079;BME280;66004;55.096;38.760;2023-06-19T00:36:10;100229.22;;;15.17;46.76
77079;BME280;66004;55.096;38.760;2023-06-19T00:38:36;100237.47;;;15.23;47.15
77079;BME280;66004;55.096;38.760;2023-06-19T00:41:03;100236.56;;;15.18;47.07
77079;BME280;66004;55.096;38.760;2023-06-19T00:43:28;100229.50;;;15.12;46.91
77079;BME280;66004;55.096;38.760;2023-06-19T00:45:57;100230.88;;;15.03;47.44
77079;BME280;66004;55.096;38.760;2023-06-19T00:48:22;100233.16;;;14.97;47.80
77079;BME280;66004;55.096;38.760;2023-06-19T00:50:49;100237.47;;;14.91;47.72
77079;BME280;66004;55.096;38.760;2023-06-19T00:53:15;100240.13;;;14.84;48.08
77079;BME280;66004;55.096;38.760;2023-06-19T00:55:41;100238.75;;;14.77;47.85
77079;BME280;66004;55.096;38.760;2023-06-19T00:58:09;100246.78;;;14.75;48.37
77079;BME280;66004;55.096;38.760;2023-06-19T01:00:35;100238.56;;;14.70;48.45
77079;BME280;66004;55.096;38.760;2023-06-19T01:03:00;100246.94;;;14.67;48.36
77079;BME280;66004;55.096;38.760;2023-06-19T01:05:26;100251.34;;;14.64;48.18
77079;BME280;66004;55.096;38.760;2023-06-19T01:10:39;100252.25;;;14.68;48.22
77079;BME280;66004;55.096;38.760;2023-06-19T01:13:13;100257.31;;;14.75;48.05
77079;BME280;66004;55.096;38.760;2023-06-19T01:15:42;100264.22;;;14.77;48.45
77079;BME280;66004;55.096;38.760;2023-06-19T01:18:08;100264.69;;;14.79;48.16
77079;BME280;66004;55.096;38.760;2023-06-19T01:20:37;100256.66;;;14.82;48.33
77079;BME280;66004;55.096;38.760;2023-06-19T01:23:09;100246.03;;;14.78;48.26
77079;BME280;66004;55.096;38.760;2023-06-19T01:25:35;100247.50;;;14.72;48.39
77079;BME280;66004;55.096;38.760;2023-06-19T01:28:06;100253.16;;;14.72;48.53
77079;BME280;66004;55.096;38.760;2023-06-19T01:30:35;100249.78;;;14.67;48.57
77079;BME280;66004;55.096;38.760;2023-06-19T01:33:23;100259.56;;;14.69;48.83
77079;BME280;66004;55.096;38.760;2023-06-19T01:35:51;100260.75;;;14.68;48.62
77079;BME280;66004;55.096;38.760;2023-06-19T01:38:21;100255.09;;;14.68;48.30
77079;BME280;66004;55.096;38.760;2023-06-19T01:40:48;100257.91;;;14.68;48.41
77079;BME280;66004;55.096;38.760;2023-06-19T01:43:15;100270.97;;;14.73;48.38
77079;BME280;66004;55.096;38.760;2023-06-19T01:45:41;100262.88;;;14.71;48.48
77079;BME280;66004;55.096;38.760;2023-06-19T01:48:08;100272.16;;;14.72;48.79
77079;BME280;66004;55.096;38.760;2023-06-19T01:50:33;100273.72;;;14.69;48.63
77079;BME280;66004;55.096;38.760;2023-06-19T01:52:59;100276.06;;;14.67;48.83
77079;BME280;66004;55.096;38.760;2023-06-19T01:55:24;100268.31;;;14.64;48.75
77079;BME280;66004;55.096;38.760;2023-06-19T01:57:50;100273.06;;;14.60;48.69
77079;BME280;66004;55.096;38.760;2023-06-19T02:00:16;100272.34;;;14.63;48.60
77079;BME280;66004;55.096;38.760;2023-06-19T02:02:42;100274.81;;;14.65;49.21
77079;BME280;66004;55.096;38.760;2023-06-19T02:05:08;100272.34;;;14.63;48.62
77079;BME280;66004;55.096;38.760;2023-06-19T02:07:33;100276.38;;;14.62;48.88
77079;BME280;66004;55.096;38.760;2023-06-19T02:09:59;100277.28;;;14.66;48.87
77079;BME280;66004;55.096;38.760;2023-06-19T02:12:24;100247.72;;;14.51;48.42
77079;BME280;66004;55.096;38.760;2023-06-19T02:14:50;100260.09;;;14.59;48.93
77079;BME280;66004;55.096;38.760;2023-06-19T02:17:15;100268.13;;;14.57;49.00
77079;BME280;66004;55.096;38.760;2023-06-19T02:19:41;100279.44;;;14.57;48.84
77079;BME280;66004;55.096;38.760;2023-06-19T02:22:07;100272.09;;;14.56;48.55
77079;BME280;66004;55.096;38.760;2023-06-19T02:24:33;100264.81;;;14.55;48.96
77079;BME280;66004;55.096;38.760;2023-06-19T02:26:58;100266.72;;;14.51;48.75
77079;BME280;66004;55.096;38.760;2023-06-19T02:29:25;100272.72;;;14.49;48.47
77079;BME280;66004;55.096;38.760;2023-06-19T02:31:50;100276.72;;;14.48;48.29
77079;BME280;66004;55.096;38.760;2023-06-19T02:34:16;100254.63;;;14.38;48.46
77079;BME280;66004;55.096;38.760;2023-06-19T02:36:42;100279.22;;;14.50;48.59
77079;BME280;66004;55.096;38.760;2023-06-19T02:39:08;100272.72;;;14.49;48.45
77079;BME280;66004;55.096;38.760;2023-06-19T02:41:34;100272.38;;;14.51;48.12
77079;BME280;66004;55.096;38.760;2023-06-19T02:43:59;100276.84;;;14.52;48.36
77079;BME280;66004;55.096;38.760;2023-06-19T02:46:25;100266.25;;;14.49;48.24
77079;BME280;66004;55.096;38.760;2023-06-19T02:48:50;100278.00;;;14.63;47.85
77079;BME280;66004;55.096;38.760;2023-06-19T02:51:16;100280.47;;;14.65;47.49
77079;BME280;66004;55.096;38.760;2023-06-19T02:53:41;100274.91;;;14.68;47.57
77079;BME280;66004;55.096;38.760;2023-06-19T02:56:09;100259.38;;;14.62;47.70
77079;BME280;66004;55.096;38.760;2023-06-19T02:58:35;100278.19;;;14.70;48.13
77079;BME280;66004;55.096;38.760;2023-06-19T03:01:03;100273.25;;;14.67;48.12
77079;BME280;66004;55.096;38.760;2023-06-19T03:03:29;100273.91;;;14.76;47.71
77079;BME280;66004;55.096;38.760;2023-06-19T03:05:55;100273.66;;;14.82;47.67
77079;BME280;66004;55.096;38.760;2023-06-19T03:08:20;100265.59;;;14.84;47.77
77079;BME280;66004;55.096;38.760;2023-06-19T03:10:45;100249.34;;;14.81;47.23
77079;BME280;66004;55.096;38.760;2023-06-19T03:13:12;100266.25;;;14.93;47.14
77079;BME280;66004;55.096;38.760;2023-06-19T03:15:38;100266.72;;;14.95;47.04
77079;BME280;66004;55.096;38.760;2023-06-19T03:18:04;100261.34;;;15.06;47.06
77079;BME280;66004;55.096;38.760;2023-06-19T03:20:32;100247.97;;;15.06;46.74
77079;BME280;66004;55.096;38.760;2023-06-19T03:22:57;100265.63;;;15.15;46.84
77079;BME280;66004;55.096;38.760;2023-06-19T03:25:23;100261.31;;;15.22;46.53
77079;BME280;66004;55.096;38.760;2023-06-19T03:27:49;100261.03;;;15.27;46.47
77079;BME280;66004;55.096;38.760;2023-06-19T03:30:14;100261.22;;;15.34;46.41
77079;BME280;66004;55.096;38.760;2023-06-19T03:32:43;100254.91;;;15.41;46.36
77079;BME280;66004;55.096;38.760;2023-06-19T03:35:09;100257.53;;;15.49;46.08
77079;BME280;66004;55.096;38.760;2023-06-19T03:37:35;100253.63;;;15.54;46.58
77079;BME280;66004;55.096;38.760;2023-06-19T03:40:01;100269.25;;;15.64;46.40
77079;BME280;66004;55.096;38.760;2023-06-19T03:42:28;100261.19;;;15.66;45.55
77079;BME280;66004;55.096;38.760;2023-06-19T03:44:54;100253.69;;;15.57;45.82
77079;BME280;66004;55.096;38.760;2023-06-19T03:47:19;100258.63;;;15.76;45.25
77079;BME280;66004;55.096;38.760;2023-06-19T03:49:45;100263.50;;;15.95;45.44
77079;BME280;66004;55.096;38.760;2023-06-19T03:52:10;100252.44;;;16.49;43.53
77079;BME280;66004;55.096;38.760;2023-06-19T03:54:36;100262.44;;;17.28;42.01
77079;BME280;66004;55.096;38.760;2023-06-19T03:57:01;100266.13;;;18.42;39.69
77079;BME280;66004;55.096;38.760;2023-06-19T03:59:27;100262.88;;;19.19;37.67
77079;BME280;66004;55.096;38.760;2023-06-19T04:01:52;100262.00;;;20.26;35.70
77079;BME280;66004;55.096;38.760;2023-06-19T04:04:18;100267.97;;;21.23;33.94
77079;BME280;66004;55.096;38.760;2023-06-19T04:06:43;100268.78;;;21.02;34.21
77079;BME280;66004;55.096;38.760;2023-06-19T04:09:09;100264.69;;;20.95;33.26
77079;BME280;66004;55.096;38.760;2023-06-19T04:11:34;100272.03;;;21.04;33.79
77079;BME280;66004;55.096;38.760;2023-06-19T04:14:00;100257.22;;;20.58;34.14
77079;BME280;66004;55.096;38.760;2023-06-19T04:16:25;100262.88;;;20.37;33.96
77079;BME280;66004;55.096;38.760;2023-06-19T04:18:51;100266.72;;;19.89;35.15
77079;BME280;66004;55.096;38.760;2023-06-19T04:21:16;100271.09;;;19.24;36.17
77079;BME280;66004;55.096;38.760;2023-06-19T04:23:42;100277.22;;;18.85;36.99
77079;BME280;66004;55.096;38.760;2023-06-19T04:26:07;100271.25;;;18.63;37.41
77079;BME280;66004;55.096;38.760;2023-06-19T04:28:33;100276.09;;;18.59;37.54
77079;BME280;66004;55.096;38.760;2023-06-19T04:30:58;100280.06;;;18.51;37.55
77079;BME280;66004;55.096;38.760;2023-06-19T04:33:27;100271.19;;;18.56;37.56
77079;BME280;66004;55.096;38.760;2023-06-19T04:35:53;100278.59;;;19.02;36.36
77079;BME280;66004;55.096;38.760;2023-06-19T04:38:19;100257.91;;;19.09;36.38
77079;BME280;66004;55.096;38.760;2023-06-19T04:40:55;100271.78;;;19.62;35.58
77079;BME280;66004;55.096;38.760;2023-06-19T04:43:22;100271.25;;;19.45;35.59
77079;BME280;66004;55.096;38.760;2023-06-19T04:45:50;100279.41;;;18.99;36.32
77079;BME280;66004;55.096;38.760;2023-06-19T04:48:15;100279.47;;;18.68;36.42
77079;BME280;66004;55.096;38.760;2023-06-19T04:50:40;100276.97;;;18.63;36.88
77079;BME280;66004;55.096;38.760;2023-06-19T04:53:06;100272.38;;;18.55;37.27
77079;BME280;66004;55.096;38.760;2023-06-19T04:55:32;100262.16;;;18.51;36.92
77079;BME280;66004;55.096;38.760;2023-06-19T04:57:57;100276.97;;;18.63;37.33
77079;BME280;66004;55.096;38.760;2023-06-19T05:00:23;100275.66;;;18.91;37.14
77079;BME280;66004;55.096;38.760;2023-06-19T05:02:49;100270.94;;;19.10;36.90
77079;BME280;66004;55.096;38.760;2023-06-19T05:05:16;100263.28;;;19.17;36.20
77079;BME280;66004;55.096;38.760;2023-06-19T05:07:42;100276.31;;;19.18;35.75
77079;BME280;66004;55.096;38.760;2023-06-19T05:10:11;100269.50;;;19.30;35.64
77079;BME280;66004;55.096;38.760;2023-06-19T05:12:36;100270.88;;;19.51;35.54
77079;BME280;66004;55.096;38.760;2023-06-19T05:15:02;100269.69;;;19.52;35.06
77079;BME280;66004;55.096;38.760;2023-06-19T05:17:28;100252.59;;;19.59;35.04
77079;BME280;66004;55.096;38.760;2023-06-19T05:19:53;100263.66;;;19.64;34.90
77079;BME280;66004;55.096;38.760;2023-06-19T05:22:19;100250.94;;;19.54;35.44
77079;BME280;66004;55.096;38.760;2023-06-19T05:24:46;100264.00;;;19.59;35.15
77079;BME280;66004;55.096;38.760;2023-06-19T05:27:12;100268.06;;;19.54;35.24
77079;BME280;66004;55.096;38.760;2023-06-19T05:29:37;100267.25;;;19.54;35.48
77079;BME280;66004;55.096;38.760;2023-06-19T05:32:03;100267.25;;;19.54;35.45
77079;BME280;66004;55.096;38.760;2023-06-19T05:34:29;100258.31;;;19.59;35.31
77079;BME280;66004;55.096;38.760;2023-06-19T05:36:55;100256.34;;;19.70;35.76
77079;BME280;66004;55.096;38.760;2023-06-19T05:39:20;100265.81;;;19.81;35.34
77079;BME280;66004;55.096;38.760;2023-06-19T05:41:46;100263.34;;;19.73;34.51
77079;BME280;66004;55.096;38.760;2023-06-19T05:44:12;100264.00;;;19.59;34.55
77079;BME280;66004;55.096;38.760;2023-06-19T05:46:42;100255.78;;;19.47;34.32
77079;BME280;66004;55.096;38.760;2023-06-19T05:49:08;100262.75;;;19.53;34.74
77079;BME280;66004;55.096;38.760;2023-06-19T05:51:33;100248.53;;;19.60;34.63
77079;BME280;66004;55.096;38.760;2023-06-19T05:53:59;100232.25;;;19.64;34.68
77079;BME280;66004;55.096;38.760;2023-06-19T05:56:29;100261.34;;;19.80;34.45
77079;BME280;66004;55.096;38.760;2023-06-19T05:58:55;100258.91;;;19.82;34.27
77079;BME280;66004;55.096;38.760;2023-06-19T06:01:20;100249.81;;;19.70;34.28
77079;BME280;66004;55.096;38.760;2023-06-19T06:03:46;100259.69;;;19.72;34.34
77079;BME280;66004;55.096;38.760;2023-06-19T06:06:11;100264.19;;;19.80;34.51
77079;BME280;66004;55.096;38.760;2023-06-19T06:08:37;100258.53;;;19.88;34.32
77079;BME280;66004;55.096;38.760;2023-06-19T06:11:02;100244.69;;;19.90;33.97
77079;BME280;66004;55.096;38.760;2023-06-19T06:13:28;100254.09;;;19.97;33.98
77079;BME280;66004;55.096;38.760;2023-06-19T06:15:53;100261.03;;;20.00;34.04
77079;BME280;66004;55.096;38.760;2023-06-19T06:18:19;100266.00;;;20.10;33.80
77079;BME280;66004;55.096;38.760;2023-06-19T06:20:45;100260.34;;;20.17;33.79
77079;BME280;66004;55.096;38.760;2023-06-19T06:23:10;100261.22;;;20.29;33.41
77079;BME280;66004;55.096;38.760;2023-06-19T06:25:36;100256.03;;;20.63;32.96
77079;BME280;66004;55.096;38.760;2023-06-19T06:28:01;100256.50;;;20.83;32.41
77079;BME280;66004;55.096;38.760;2023-06-19T06:30:26;100247.13;;;20.93;31.78
77079;BME280;66004;55.096;38.760;2023-06-19T06:32:53;100246.72;;;20.91;31.78
77079;BME280;66004;55.096;38.760;2023-06-19T06:35:19;100259.78;;;20.99;31.84
77079;BME280;66004;55.096;38.760;2023-06-19T06:37:44;100258.56;;;21.00;31.36
77079;BME280;66004;55.096;38.760;2023-06-19T06:40:11;100252.47;;;21.27;31.10
77079;BME280;66004;55.096;38.760;2023-06-19T06:42:38;100244.22;;;21.87;30.54
77079;BME280;66004;55.096;38.760;2023-06-19T06:45:05;100255.50;;;22.51;29.37
77079;BME280;66004;55.096;38.760;2023-06-19T06:47:32;100247.28;;;22.61;29.47
77079;BME280;66004;55.096;38.760;2023-06-19T06:49:57;100252.50;;;22.73;29.27
77079;BME280;66004;55.096;38.760;2023-06-19T06:52:23;100258.59;;;22.82;30.01
77079;BME280;66004;55.096;38.760;2023-06-19T06:54:49;100242.19;;;22.86;29.39
77079;BME280;66004;55.096;38.760;2023-06-19T06:57:15;100262.38;;;22.72;29.46
77079;BME280;66004;55.096;38.760;2023-06-19T06:59:41;100253.78;;;22.65;29.46
77079;BME280;66004;55.096;38.760;2023-06-19T07:02:06;100256.13;;;22.84;29.66
77079;BME280;66004;55.096;38.760;2023-06-19T07:04:32;100245.03;;;22.90;29.19
77079;BME280;66004;55.096;38.760;2023-06-19T07:06:58;100235.31;;;22.69;29.51
77079;BME280;66004;55.096;38.760;2023-06-19T07:09:23;100245.97;;;22.72;29.46
77079;BME280;66004;55.096;38.760;2023-06-19T07:11:49;100243.19;;;22.54;30.04
77079;BME280;66004;55.096;38.760;2023-06-19T07:14:15;100242.38;;;22.50;30.11
77079;BME280;66004;55.096;38.760;2023-06-19T07:16:44;100246.41;;;22.67;29.74
77079;BME280;66004;55.096;38.760;2023-06-19T07:19:10;100252.88;;;22.82;29.97
77079;BME280;66004;55.096;38.760;2023-06-19T07:21:36;100252.50;;;22.73;29.71
77079;BME280;66004;55.096;38.760;2023-06-19T07:24:04;100242.75;;;22.60;29.27
77079;BME280;66004;55.096;38.760;2023-06-19T07:26:30;100245.75;;;22.34;29.55
77079;BME280;66004;55.096;38.760;2023-06-19T07:28:56;100236.00;;;22.03;30.75
77079;BME280;66004;55.096;38.760;2023-06-19T07:31:21;100233.59;;;21.91;30.72
77079;BME280;66004;55.096;38.760;2023-06-19T07:33:47;100240.94;;;21.92;30.99
77079;BME280;66004;55.096;38.760;2023-06-19T07:36:13;100239.34;;;21.91;31.25
77079;BME280;66004;55.096;38.760;2023-06-19T07:38:40;100226.25;;;21.75;30.88
77079;BME280;66004;55.096;38.760;2023-06-19T07:41:06;100221.38;;;21.65;30.47
77079;BME280;66004;55.096;38.760;2023-06-19T07:43:32;100223.03;;;21.59;31.01
77079;BME280;66004;55.096;38.760;2023-06-19T07:45:58;100225.47;;;21.32;31.07
77079;BME280;66004;55.096;38.760;2023-06-19T07:48:24;100225.47;;;21.32;31.14
77079;BME280;66004;55.096;38.760;2023-06-19T07:50:50;100234.50;;;21.45;31.21
77079;BME280;66004;55.096;38.760;2023-06-19T07:53:15;100226.28;;;21.43;30.76
77079;BME280;66004;55.096;38.760;2023-06-19T07:55:41;100226.72;;;21.45;30.80
77079;BME280;66004;55.096;38.760;2023-06-19T07:58:07;100216.47;;;21.33;30.45
77079;BME280;66004;55.096;38.760;2023-06-19T08:00:33;100218.94;;;21.38;30.90
77079;BME280;66004;55.096;38.760;2023-06-19T08:02:58;100223.00;;;21.37;30.91
77079;BME280;66004;55.096;38.760;2023-06-19T08:05:24;100215.66;;;21.33;31.64
77079;BME280;66004;55.096;38.760;2023-06-19T08:07:49;100226.28;;;21.39;31.29
77079;BME280;66004;55.096;38.760;2023-06-19T08:10:15;100227.13;;;21.44;31.22
77079;BME280;66004;55.096;38.760;2023-06-19T08:12:42;100215.66;;;21.58;30.99
77079;BME280;66004;55.096;38.760;2023-06-19T08:15:08;100222.19;;;21.62;30.63
77079;BME280;66004;55.096;38.760;2023-06-19T08:17:34;100220.19;;;21.59;30.49
77079;BME280;66004;55.096;38.760;2023-06-19T08:20:02;100203.41;;;21.47;30.59
77079;BME280;66004;55.096;38.760;2023-06-19T08:22:30;100216.50;;;21.48;30.54
77079;BME280;66004;55.096;38.760;2023-06-19T08:24:56;100222.22;;;21.55;30.04
77079;BME280;66004;55.096;38.760;2023-06-19T08:27:23;100214.06;;;21.50;30.07
77079;BME280;66004;55.096;38.760;2023-06-19T08:29:48;100212.41;;;21.60;29.81
77079;BME280;66004;55.096;38.760;2023-06-19T08:32:14;100224.66;;;21.60;29.67
77079;BME280;66004;55.096;38.760;2023-06-19T08:34:39;100221.41;;;21.44;29.34
77079;BME280;66004;55.096;38.760;2023-06-19T08:37:06;100212.81;;;21.29;29.39
77079;BME280;66004;55.096;38.760;2023-06-19T08:39:32;100216.91;;;21.21;29.26
77079;BME280;66004;55.096;38.760;2023-06-19T08:41:57;100206.69;;;21.20;29.36
77079;BME280;66004;55.096;38.760;2023-06-19T08:44:23;100206.69;;;21.20;29.33
77079;BME280;66004;55.096;38.760;2023-06-19T08:46:48;100213.63;;;21.26;29.33
77079;BME280;66004;55.096;38.760;2023-06-19T08:49:14;100210.75;;;21.26;29.04
77079;BME280;66004;55.096;38.760;2023-06-19T08:51:43;100208.28;;;21.25;28.86
77079;BME280;66004;55.096;38.760;2023-06-19T08:54:08;100215.66;;;21.29;28.39
77079;BME280;66004;55.096;38.760;2023-06-19T08:56:34;100202.16;;;21.33;28.23
77079;BME280;66004;55.096;38.760;2023-06-19T08:59:17;100208.31;;;21.28;27.17
77079;BME280;66004;55.096;38.760;2023-06-19T09:01:50;100207.50;;;21.31;26.54
77079;BME280;66004;55.096;38.760;2023-06-19T09:04:21;100187.91;;;21.12;25.58
77079;BME280;66004;55.096;38.760;2023-06-19T09:06:58;100194.44;;;21.23;26.23
77079;BME280;66004;55.096;38.760;2023-06-19T09:09:25;100196.03;;;21.24;26.62
77079;BME280;66004;55.096;38.760;2023-06-19T09:12:05;100192.38;;;21.20;26.56
77079;BME280;66004;55.096;38.760;2023-06-19T09:14:36;100186.25;;;21.18;26.46
77079;BME280;66004;55.096;38.760;2023-06-19T09:17:03;100184.59;;;21.13;26.81
77079;BME280;66004;55.096;38.760;2023-06-19T09:19:29;100178.88;;;21.17;26.39
77079;BME280;66004;55.096;38.760;2023-06-19T09:22:06;100190.31;;;21.24;25.90
77079;BME280;66004;55.096;38.760;2023-06-19T09:24:38;100190.72;;;21.23;26.18
77079;BME280;66004;55.096;38.760;2023-06-19T09:27:09;100191.16;;;21.21;26.62
77079;BME280;66004;55.096;38.760;2023-06-19T09:29:38;100191.16;;;21.21;26.11
77079;BME280;66004;55.096;38.760;2023-06-19T09:32:24;100184.59;;;21.17;25.34
77079;BME280;66004;55.096;38.760;2023-06-19T09:34:53;100187.88;;;21.05;25.59
77079;BME280;66004;55.096;38.760;2023-06-19T09:37:24;100180.53;;;21.04;26.10
77079;BME280;66004;55.096;38.760;2023-06-19T09:39:58;100169.88;;;21.08;26.42
77079;BME280;66004;55.096;38.760;2023-06-19T09:42:31;100191.16;;;21.21;25.97
77079;BME280;66004;55.096;38.760;2023-06-19T09:45:17;100182.13;;;21.19;25.38
77079;BME280;66004;55.096;38.760;2023-06-19T09:47:46;100176.44;;;21.12;24.59
77079;BME280;66004;55.096;38.760;2023-06-19T09:50:13;100169.09;;;21.14;25.61
77079;BME280;66004;55.096;38.760;2023-06-19T09:52:43;100174.41;;;21.27;26.69
77079;BME280;66004;55.096;38.760;2023-06-19T09:55:10;100163.34;;;21.25;27.42
77079;BME280;66004;55.096;38.760;2023-06-19T09:57:38;100149.47;;;21.13;28.04
77079;BME280;66004;55.096;38.760;2023-06-19T10:00:06;100161.72;;;21.13;28.30
77079;BME280;66004;55.096;38.760;2023-06-19T10:02:42;100154.38;;;21.16;28.42
77079;BME280;66004;55.096;38.760;2023-06-19T10:05:09;100156.00;;;21.20;28.42
77079;BME280;66004;55.096;38.760;2023-06-19T10:07:38;100150.25;;;21.24;28.18
77079;BME280;66004;55.096;38.760;2023-06-19T10:10:08;100147.00;;;21.29;27.97
77079;BME280;66004;55.096;38.760;2023-06-19T10:12:55;100153.13;;;21.28;27.60
77079;BME280;66004;55.096;38.760;2023-06-19T10:15:24;100150.25;;;21.24;27.65
77079;BME280;66004;55.096;38.760;2023-06-19T10:17:59;100150.25;;;21.31;27.41
77079;BME280;66004;55.096;38.760;2023-06-19T10:20:35;100152.72;;;21.40;27.25
77079;BME280;66004;55.096;38.760;2023-06-19T10:23:12;100142.91;;;21.45;27.52
77079;BME280;66004;55.096;38.760;2023-06-19T10:25:40;100133.88;;;21.43;27.86
77079;BME280;66004;55.096;38.760;2023-06-19T10:28:28;100138.81;;;21.46;27.15
77079;BME280;66004;55.096;38.760;2023-06-19T10:31:06;100138.81;;;21.38;27.46
77079;BME280;66004;55.096;38.760;2023-06-19T10:33:36;100131.44;;;21.37;27.80
77079;BME280;66004;55.096;38.760;2023-06-19T10:36:16;100142.91;;;21.45;28.32
77079;BME280;66004;55.096;38.760;2023-06-19T10:38:42;100141.25;;;21.44;27.72
77079;BME280;66004;55.096;38.760;2023-06-19T10:41:16;100129.81;;;21.29;27.43
77079;BME280;66004;55.096;38.760;2023-06-19T10:43:42;100129.81;;;21.29;27.74
77079;BME280;66004;55.096;38.760;2023-06-19T10:46:17;100132.28;;;21.38;27.95
77079;BME280;66004;55.096;38.760;2023-06-19T10:48:43;100133.09;;;21.38;27.88
77079;BME280;66004;55.096;38.760;2023-06-19T10:51:08;100130.22;;;21.38;27.80
77079;BME280;66004;55.096;38.760;2023-06-19T10:53:34;100134.69;;;21.39;27.44
77079;BME280;66004;55.096;38.760;2023-06-19T10:56:03;100126.56;;;21.34;26.72
77079;BME280;66004;55.096;38.760;2023-06-19T10:58:29;100126.97;;;21.36;26.54
77079;BME280;66004;55.096;38.760;2023-06-19T11:00:55;100128.19;;;21.46;26.74
77079;BME280;66004;55.096;38.760;2023-06-19T11:03:23;100133.09;;;21.49;26.34
77079;BME280;66004;55.096;38.760;2023-06-19T11:05:49;100117.53;;;21.47;26.28
77079;BME280;66004;55.096;38.760;2023-06-19T11:08:25;100124.03;;;21.65;26.54
77079;BME280;66004;55.096;38.760;2023-06-19T11:10:51;100124.81;;;21.73;26.33
77079;BME280;66004;55.096;38.760;2023-06-19T11:13:18;100128.09;;;21.75;25.77
77079;BME280;66004;55.096;38.760;2023-06-19T11:15:47;100137.09;;;21.73;26.37
77079;BME280;66004;55.096;38.760;2023-06-19T11:18:15;100129.72;;;21.80;26.58
77079;BME280;66004;55.096;38.760;2023-06-19T11:20:45;100114.56;;;21.75;26.24
77079;BME280;66004;55.096;38.760;2023-06-19T11:23:12;100113.34;;;21.84;26.41
77079;BME280;66004;55.096;38.760;2023-06-19T11:25:41;100119.84;;;21.88;26.06
77079;BME280;66004;55.096;38.760;2023-06-19T11:28:14;100115.81;;;21.82;26.64
77079;BME280;66004;55.096;38.760;2023-06-19T11:30:41;100092.88;;;21.89;26.75
77079;BME280;66004;55.096;38.760;2023-06-19T11:33:21;100102.25;;;21.93;25.98
77079;BME280;66004;55.096;38.760;2023-06-19T11:35:50;100102.28;;;21.82;25.71
77079;BME280;66004;55.096;38.760;2023-06-19T11:38:21;100096.16;;;21.84;26.15
77079;BME280;66004;55.096;38.760;2023-06-19T11:40:48;100106.72;;;21.94;26.20
77079;BME280;66004;55.096;38.760;2023-06-19T11:43:27;100096.81;;;22.13;26.09
77079;BME280;66004;55.096;38.760;2023-06-19T11:45:53;100099.25;;;22.14;25.54
77079;BME280;66004;55.096;38.760;2023-06-19T11:48:26;100105.84;;;22.11;25.50
77079;BME280;66004;55.096;38.760;2023-06-19T11:50:52;100105.00;;;22.07;26.28
77079;BME280;66004;55.096;38.760;2023-06-19T11:53:21;100097.28;;;22.04;26.30
77079;BME280;66004;55.096;38.760;2023-06-19T11:55:47;100084.19;;;22.00;26.41
77079;BME280;66004;55.096;38.760;2023-06-19T11:58:12;100091.91;;;22.13;26.70
77079;BME280;66004;55.096;38.760;2023-06-19T12:00:40;100072.69;;;22.10;26.25
77079;BME280;66004;55.096;38.760;2023-06-19T12:03:06;100079.97;;;22.19;26.28
77079;BME280;66004;55.096;38.760;2023-06-19T12:05:36;100083.69;;;22.19;26.12
77079;BME280;66004;55.096;38.760;2023-06-19T12:08:02;100076.72;;;22.16;26.12
77079;BME280;66004;55.096;38.760;2023-06-19T12:10:28;100065.66;;;22.19;26.76
77079;BME280;66004;55.096;38.760;2023-06-19T12:12:54;100039.97;;;22.04;26.97
77079;BME280;66004;55.096;38.760;2023-06-19T12:15:19;100064.44;;;22.20;26.75
77079;BME280;66004;55.096;38.760;2023-06-19T12:17:46;100073.81;;;22.31;26.77
77079;BME280;66004;55.096;38.760;2023-06-19T12:20:12;100054.59;;;22.21;26.33
77079;BME280;66004;55.096;38.760;2023-06-19T12:22:41;100050.91;;;22.24;26.64
77079;BME280;66004;55.096;38.760;2023-06-19T12:25:08;100070.03;;;22.41;26.38
77079;BME280;66004;55.096;38.760;2023-06-19T12:27:33;100054.13;;;22.33;26.19
77079;BME280;66004;55.096;38.760;2023-06-19T12:29:59;100061.09;;;22.32;26.12
77079;BME280;66004;55.096;38.760;2023-06-19T12:32:25;100053.38;;;22.18;26.04
77079;BME280;66004;55.096;38.760;2023-06-19T12:34:53;100050.09;;;22.20;25.91
77079;BME280;66004;55.096;38.760;2023-06-19T12:37:22;100058.69;;;22.23;25.57
77079;BME280;66004;55.096;38.760;2023-06-19T12:39:52;100061.56;;;22.23;25.23
77079;BME280;66004;55.096;38.760;2023-06-19T12:42:17;100055.81;;;22.23;26.09
77079;BME280;66004;55.096;38.760;2023-06-19T12:44:43;100049.25;;;22.26;25.76